createdAt,value
2023-03-11T00:00:34.415Z,97550.31
2023-03-11T00:03:02.957Z,97557.53
2023-03-11T00:05:33.593Z,97563.66
2023-03-11T00:08:01.182Z,97564.50
2023-03-11T00:10:30.878Z,97562.81
2023-03-11T00:12:59.050Z,97571.50
2023-03-11T00:15:26.740Z,97561.88
2023-03-11T00:17:54.086Z,97559.25
2023-03-11T00:20:27.730Z,97568.06
2023-03-11T00:22:55.304Z,97581.97
2023-03-11T00:25:24.552Z,97586.28
2023-03-11T00:27:51.325Z,97579.28
2023-03-11T00:30:19.528Z,97567.06
2023-03-11T00:32:48.737Z,97567.88
2023-03-11T00:35:18.941Z,97565.28
2023-03-11T00:37:47.315Z,97570.50
2023-03-11T00:40:20.184Z,97580.03
2023-03-11T00:42:47.091Z,97589.66
2023-03-11T00:45:14.699Z,97607.16
2023-03-11T00:47:42.176Z,97596.66
2023-03-11T00:50:12.192Z,97587.91
2023-03-11T00:52:38.905Z,97606.19
2023-03-11T00:55:06.667Z,97594.09
2023-03-11T00:57:34.556Z,97585.31
2023-03-11T01:00:01.245Z,97586.97
2023-03-11T01:02:28.038Z,97581.78
2023-03-11T01:04:56.545Z,97571.28
2023-03-11T01:07:23.458Z,97576.59
2023-03-11T01:09:50.135Z,97588.78
2023-03-11T01:12:16.875Z,97585.34
2023-03-11T01:14:43.676Z,97594.91
2023-03-11T01:17:10.397Z,97610.56
2023-03-11T01:19:37.075Z,97598.38
2023-03-11T01:22:03.945Z,97587.94
2023-03-11T01:24:30.593Z,97608.00
2023-03-11T01:26:57.262Z,97621.91
2023-03-11T01:29:24.804Z,97626.28
2023-03-11T01:31:51.578Z,97629.75
2023-03-11T01:34:18.331Z,97616.72
2023-03-11T01:36:44.994Z,97631.53
2023-03-11T01:39:11.870Z,97614.16
2023-03-11T01:41:38.549Z,97612.41
2023-03-11T01:44:05.772Z,97614.13
2023-03-11T01:47:00.044Z,97604.59
2023-03-11T01:49:32.754Z,97593.28
2023-03-11T01:52:07.775Z,97585.44
2023-03-11T01:54:41.446Z,97589.81
2023-03-11T01:57:13.407Z,97601.97
2023-03-11T01:59:47.208Z,97587.22
2023-03-11T02:02:25.376Z,97581.13
2023-03-11T02:04:53.337Z,97586.34
2023-03-11T02:07:22.967Z,97585.47
2023-03-11T02:09:49.763Z,97584.66
2023-03-11T02:12:16.683Z,97580.31
2023-03-11T02:14:48.351Z,97582.03
2023-03-11T02:17:15.520Z,97564.66
2023-03-11T02:20:07.557Z,97575.06
2023-03-11T02:22:34.835Z,97587.25
2023-03-11T02:25:11.812Z,97587.25
2023-03-11T02:27:43.419Z,97600.28
2023-03-11T02:30:12.985Z,97606.38
2023-03-11T02:32:42.928Z,97602.03
2023-03-11T02:35:09.881Z,97601.16
2023-03-11T02:37:36.871Z,97587.25
2023-03-11T02:40:24.752Z,97591.59
2023-03-11T02:42:58.181Z,97593.34
2023-03-11T02:45:26.538Z,97586.38
2023-03-11T02:47:55.608Z,97588.09
2023-03-11T02:50:22.850Z,97582.03
2023-03-11T02:52:50.165Z,97570.75
2023-03-11T02:55:18.088Z,97584.66
2023-03-11T02:57:45.191Z,97582.91
2023-03-11T03:00:15.737Z,97584.66
2023-03-11T03:02:52.115Z,97594.22
2023-03-11T03:05:20.728Z,97602.91
2023-03-11T03:07:49.142Z,97608.97
2023-03-11T03:10:18.789Z,97608.09
2023-03-11T03:12:45.981Z,97602.91
2023-03-11T03:15:12.782Z,97604.63
2023-03-11T03:17:39.651Z,97603.78
2023-03-11T03:20:12.561Z,97605.50
2023-03-11T03:22:42.847Z,97592.47
2023-03-11T03:25:11.723Z,97601.16
2023-03-11T03:27:38.976Z,97613.28
2023-03-11T03:30:08.189Z,97618.50
2023-03-11T03:32:35.691Z,97609.81
2023-03-11T03:35:04.670Z,97615.06
2023-03-11T03:38:01.144Z,97615.94
2023-03-11T03:40:27.918Z,97623.72
2023-03-11T03:42:57.094Z,97617.66
2023-03-11T03:45:24.479Z,97626.31
2023-03-11T03:47:53.035Z,97628.97
2023-03-11T03:50:22.013Z,97633.28
2023-03-11T03:52:50.554Z,97622.00
2023-03-11T03:55:17.594Z,97636.75
2023-03-11T03:57:44.260Z,97628.06
2023-03-11T04:00:13.518Z,97630.69
2023-03-11T04:02:46.218Z,97627.22
2023-03-11T04:05:21.942Z,97629.81
2023-03-11T04:07:48.725Z,97619.38
2023-03-11T04:10:15.709Z,97633.31
2023-03-11T04:12:43.183Z,97631.56
2023-03-11T04:15:10.584Z,97637.63
2023-03-11T04:17:38.762Z,97636.75
2023-03-11T04:20:10.362Z,97645.44
2023-03-11T04:22:37.118Z,97641.97
2023-03-11T04:25:04.979Z,97644.59
2023-03-11T04:27:32.632Z,97650.63
2023-03-11T04:30:00.219Z,97647.19
2023-03-11T04:32:27.055Z,97647.16
2023-03-11T04:34:53.736Z,97643.72
2023-03-11T04:37:20.515Z,97648.88
2023-03-11T04:39:47.478Z,97647.19
2023-03-11T04:42:14.240Z,97654.97
2023-03-11T04:44:43.312Z,97646.31
2023-03-11T04:47:10.299Z,97637.66
2023-03-11T04:49:37.180Z,97645.47
2023-03-11T04:52:04.254Z,97650.66
2023-03-11T04:54:30.978Z,97645.44
2023-03-11T04:56:57.712Z,97648.03
2023-03-11T04:59:24.744Z,97650.66
2023-03-11T05:01:52.270Z,97648.06
2023-03-11T05:04:19.339Z,97651.53
2023-03-11T05:06:46.330Z,97650.66
2023-03-11T05:09:14.087Z,97641.13
2023-03-11T05:11:41.073Z,97647.19
2023-03-11T05:14:08.506Z,97650.69
2023-03-11T05:16:35.580Z,97647.19
2023-03-11T05:19:23.740Z,97650.66
2023-03-11T05:21:50.676Z,97650.66
2023-03-11T05:24:17.366Z,97648.06
2023-03-11T05:26:44.078Z,97655.88
2023-03-11T05:29:10.837Z,97641.13
2023-03-11T05:31:37.632Z,97641.97
2023-03-11T05:34:04.453Z,97651.53
2023-03-11T05:36:31.162Z,97658.47
2023-03-11T05:38:58.064Z,97661.06
2023-03-11T05:41:24.885Z,97662.81
2023-03-11T05:43:52.270Z,97647.19
2023-03-11T05:46:20.539Z,97666.28
2023-03-11T05:48:47.369Z,97666.31
2023-03-11T05:51:14.707Z,97657.59
2023-03-11T05:53:48.457Z,97656.75
2023-03-11T05:56:21.864Z,97661.09
2023-03-11T05:58:49.780Z,97660.22
2023-03-11T06:01:19.466Z,97668.91
2023-03-11T06:03:46.787Z,97668.91
2023-03-11T06:06:14.231Z,97669.75
2023-03-11T06:08:45.863Z,97671.47
2023-03-11T06:11:12.968Z,97668.03
2023-03-11T06:13:40.059Z,97673.22
2023-03-11T06:16:09.534Z,97684.53
2023-03-11T06:18:36.612Z,97688.88
2023-03-11T06:21:05.067Z,97692.34
2023-03-11T06:23:32.980Z,97684.50
2023-03-11T06:26:02.734Z,97688.84
2023-03-11T06:28:32.179Z,97700.94
2023-03-11T06:31:10.924Z,97697.44
2023-03-11T06:33:37.929Z,97696.50
2023-03-11T06:36:06.092Z,97699.91
2023-03-11T06:38:36.276Z,97702.41
2023-03-11T06:41:05.805Z,97703.88
2023-03-11T06:43:35.503Z,97692.88
2023-03-11T06:46:11.392Z,97697.78
2023-03-11T06:48:39.378Z,97693.47
2023-03-11T06:51:06.255Z,97702.34
2023-03-11T06:53:33.768Z,97703.25
2023-03-11T06:56:05.112Z,97713.28
2023-03-11T06:58:37.259Z,97722.53
2023-03-11T07:01:10.754Z,97722.53
2023-03-11T07:03:38.751Z,97709.09
2023-03-11T07:06:06.775Z,97707.84
2023-03-11T07:08:33.943Z,97696.97
2023-03-11T07:11:06.706Z,97692.13
2023-03-11T07:13:34.695Z,97685.31
2023-03-11T07:16:07.613Z,97677.47
2023-03-11T07:18:35.549Z,97673.34
2023-03-11T07:21:04.181Z,97677.22
2023-03-11T07:23:30.924Z,97678.59
2023-03-11T07:25:57.641Z,97678.19
2023-03-11T07:28:25.829Z,97680.44
2023-03-11T07:30:53.162Z,97702.03
2023-03-11T07:33:21.564Z,97707.13
2023-03-11T07:35:49.295Z,97684.41
2023-03-11T07:38:17.906Z,97685.38
2023-03-11T07:40:44.707Z,97675.75
2023-03-11T07:43:11.628Z,97681.59
2023-03-11T07:45:38.312Z,97677.31
2023-03-11T07:48:05.392Z,97689.81
2023-03-11T07:50:32.074Z,97688.25
2023-03-11T07:52:58.777Z,97682.84
2023-03-11T07:55:25.460Z,97687.06
2023-03-11T07:57:52.162Z,97680.00
2023-03-11T08:00:19.708Z,97675.47
2023-03-11T08:02:46.534Z,97677.69
2023-03-11T08:05:13.436Z,97682.09
2023-03-11T08:07:40.076Z,97688.22
2023-03-11T08:10:07.263Z,97697.59
2023-03-11T08:12:34.056Z,97695.78
2023-03-11T08:15:00.792Z,97697.16
2023-03-11T08:17:27.473Z,97701.66
2023-03-11T08:19:54.116Z,97701.78
2023-03-11T08:22:20.860Z,97702.56
2023-03-11T08:24:51.805Z,97707.63
2023-03-11T08:27:18.828Z,97704.47
2023-03-11T08:29:45.518Z,97716.88
2023-03-11T08:32:12.257Z,97718.81
2023-03-11T08:34:39.522Z,97706.19
2023-03-11T08:37:06.788Z,97713.69
2023-03-11T08:39:33.490Z,97722.69
2023-03-11T08:42:00.595Z,97724.94
2023-03-11T08:44:27.297Z,97733.03
2023-03-11T08:46:54.258Z,97747.88
2023-03-11T08:49:20.960Z,97742.78
2023-03-11T08:51:47.588Z,97746.00
2023-03-11T08:54:14.303Z,97736.06
2023-03-11T08:56:40.990Z,97736.88
2023-03-11T08:59:08.537Z,97745.41
2023-03-11T09:01:35.228Z,97745.38
2023-03-11T09:04:01.945Z,97747.84
2023-03-11T09:06:30.434Z,97743.56
2023-03-11T09:08:57.720Z,97740.19
2023-03-11T09:11:24.811Z,97739.50
2023-03-11T09:13:51.893Z,97736.22
2023-03-11T09:16:21.431Z,97733.03
2023-03-11T09:18:48.725Z,97733.94
2023-03-11T09:21:15.504Z,97735.66
2023-03-11T09:23:44.331Z,97749.66
2023-03-11T09:26:12.503Z,97752.16
2023-03-11T09:28:40.215Z,97763.66
2023-03-11T09:31:07.232Z,97759.09
2023-03-11T09:33:39.648Z,97755.63
2023-03-11T09:36:07.319Z,97749.25
2023-03-11T09:38:34.258Z,97739.25
2023-03-11T09:41:23.104Z,97741.50
2023-03-11T09:43:55.835Z,97755.25
2023-03-11T09:46:49.887Z,97743.41
2023-03-11T09:49:27.895Z,97743.81
2023-03-11T09:52:15.603Z,97740.03
2023-03-11T09:54:52.314Z,97746.50
2023-03-11T09:57:26.611Z,97748.00
2023-03-11T09:59:54.524Z,97745.63
2023-03-11T10:02:26.649Z,97736.31
2023-03-11T10:05:00.946Z,97743.97
2023-03-11T10:07:39.821Z,97755.91
2023-03-11T10:10:11.266Z,97767.53
2023-03-11T10:12:52.133Z,97772.50
2023-03-11T10:15:39.620Z,97775.03
2023-03-11T10:18:28.018Z,97785.78
2023-03-11T10:20:54.611Z,97795.41
2023-03-11T10:23:47.229Z,97799.00
2023-03-11T10:26:23.274Z,97808.41
2023-03-11T10:29:00.090Z,97802.00
2023-03-11T10:31:32.910Z,97786.47
2023-03-11T10:34:45.210Z,97776.97
2023-03-11T10:37:18.635Z,97758.94
2023-03-11T10:39:50.564Z,97755.06
2023-03-11T10:42:22.503Z,97766.66
2023-03-11T10:44:51.070Z,97764.88
2023-03-11T10:47:24.311Z,97773.75
2023-03-11T10:49:52.381Z,97764.44
2023-03-11T10:52:20.060Z,97760.16
2023-03-11T10:54:58.548Z,97751.31
2023-03-11T10:57:29.071Z,97740.88
2023-03-11T10:59:58.319Z,97742.66
2023-03-11T11:02:42.084Z,97741.22
2023-03-11T11:05:16.094Z,97744.66
2023-03-11T11:07:44.927Z,97752.31
2023-03-11T11:10:11.527Z,97759.66
2023-03-11T11:13:02.472Z,97780.16
2023-03-11T11:15:37.442Z,97784.94
2023-03-11T11:18:19.698Z,97783.38
2023-03-11T11:21:06.941Z,97783.75
2023-03-11T11:23:41.892Z,97773.03
2023-03-11T11:26:22.137Z,97766.91
2023-03-11T11:29:27.271Z,97765.97
2023-03-11T11:32:19.101Z,97747.97
2023-03-11T11:34:59.715Z,97758.69
2023-03-11T11:37:31.807Z,97759.06
2023-03-11T11:40:11.167Z,97759.00
2023-03-11T11:42:41.210Z,97743.38
2023-03-11T11:45:22.768Z,97746.25
2023-03-11T11:47:53.993Z,97739.78
2023-03-11T11:50:35.990Z,97734.38
2023-03-11T11:53:15.086Z,97714.91
2023-03-11T11:55:47.692Z,97706.56
2023-03-11T11:58:14.761Z,97737.97
2023-03-11T12:01:05.679Z,97721.78
2023-03-11T12:03:44.358Z,97722.59
2023-03-11T12:06:25.087Z,97723.41
2023-03-11T12:09:14.660Z,97710.19
2023-03-11T12:11:56.107Z,97716.50
2023-03-11T12:14:45.782Z,97711.84
2023-03-11T12:17:14.883Z,97716.94
2023-03-11T12:19:46.025Z,97724.00
2023-03-11T12:22:38.878Z,97719.25
2023-03-11T12:25:27.228Z,97721.63
2023-03-11T12:28:09.215Z,97728.34
2023-03-11T12:30:43.946Z,97729.03
2023-03-11T12:33:43.121Z,97726.28
2023-03-11T12:36:40.662Z,97736.84
2023-03-11T12:39:19.489Z,97745.88
2023-03-11T12:41:46.522Z,97755.38
2023-03-11T12:44:30.763Z,97748.69
2023-03-11T12:47:15.343Z,97751.47
2023-03-11T12:50:08.722Z,97751.25
2023-03-11T12:52:53.468Z,97751.06
2023-03-11T12:55:32.006Z,97748.84
2023-03-11T12:58:11.470Z,97749.97
2023-03-11T13:01:05.606Z,97752.69
2023-03-11T13:03:51.066Z,97750.44
2023-03-11T13:06:55.617Z,97755.25
2023-03-11T13:09:25.110Z,97763.41
2023-03-11T13:11:52.049Z,97753.13
2023-03-11T13:14:28.737Z,97753.66
2023-03-11T13:16:56.419Z,97747.03
2023-03-11T13:19:26.096Z,97750.81
2023-03-11T13:21:53.790Z,97748.13
2023-03-11T13:24:25.799Z,97735.94
2023-03-11T13:27:04.952Z,97738.22
2023-03-11T13:29:31.792Z,97740.94
2023-03-11T13:32:36.432Z,97746.34
2023-03-11T13:35:05.778Z,97750.31
2023-03-11T13:37:44.217Z,97746.88
2023-03-11T13:40:26.423Z,97752.81
2023-03-11T13:42:58.023Z,97751.94
2023-03-11T13:45:35.687Z,97755.81
2023-03-11T13:48:31.280Z,97752.97
2023-03-11T13:51:13.161Z,97754.25
2023-03-11T13:53:47.490Z,97766.09
2023-03-11T13:56:29.208Z,97764.06
2023-03-11T13:59:17.451Z,97756.16
2023-03-11T14:01:52.362Z,97745.69
2023-03-11T14:04:26.426Z,97765.00
2023-03-11T14:06:53.381Z,97763.13
2023-03-11T14:09:22.982Z,97763.72
2023-03-11T14:11:49.916Z,97772.19
2023-03-11T14:14:43.436Z,97774.06
2023-03-11T14:17:16.585Z,97761.06
2023-03-11T14:20:12.253Z,97773.81
2023-03-11T14:22:39.217Z,97774.31
2023-03-11T14:25:10.147Z,97772.28
2023-03-11T14:27:45.362Z,97774.53
2023-03-11T14:30:20.407Z,97774.72
2023-03-11T14:32:59.764Z,97786.91
2023-03-11T14:35:26.917Z,97782.78
2023-03-11T14:37:53.807Z,97786.13
2023-03-11T14:40:37.621Z,97782.88
2023-03-11T14:43:07.273Z,97791.25
2023-03-11T14:45:38.899Z,97787.47
2023-03-11T14:48:13.464Z,97786.28
2023-03-11T14:50:42.678Z,97780.72
2023-03-11T14:53:12.189Z,97783.78
2023-03-11T14:55:40.501Z,97780.63
2023-03-11T14:58:15.952Z,97780.38
2023-03-11T15:00:59.656Z,97783.69
2023-03-11T15:03:31.008Z,97778.38
2023-03-11T15:06:08.534Z,97778.81
2023-03-11T15:08:47.300Z,97770.22
2023-03-11T15:11:13.851Z,97765.78
2023-03-11T15:13:43.044Z,97776.44
2023-03-11T15:16:34.732Z,97771.78
2023-03-11T15:19:32.067Z,97772.78
2023-03-11T15:22:21.643Z,97782.13
2023-03-11T15:24:57.694Z,97776.84
2023-03-11T15:27:33.003Z,97782.94
2023-03-11T15:30:00.781Z,97775.38
2023-03-11T15:32:41.289Z,97775.38
2023-03-11T15:35:07.962Z,97774.13
2023-03-11T15:37:35.125Z,97779.44
2023-03-11T15:40:12.816Z,97789.44
2023-03-11T15:42:39.577Z,97790.50
2023-03-11T15:45:13.266Z,97788.09
2023-03-11T15:47:40.550Z,97791.25
2023-03-11T15:50:24.519Z,97794.16
2023-03-11T15:52:56.648Z,97793.13
2023-03-11T15:55:25.337Z,97793.69
2023-03-11T15:58:05.550Z,97796.47
2023-03-11T16:00:32.458Z,97794.72
2023-03-11T16:02:59.185Z,97791.56
2023-03-11T16:05:25.988Z,97799.59
2023-03-11T16:07:52.640Z,97803.34
2023-03-11T16:10:22.463Z,97806.75
2023-03-11T16:12:49.150Z,97804.69
2023-03-11T16:15:20.981Z,97812.06
2023-03-11T16:17:50.389Z,97809.03
2023-03-11T16:20:19.066Z,97819.75
2023-03-11T16:22:47.492Z,97820.13
2023-03-11T16:25:21.875Z,97816.25
2023-03-11T16:27:51.012Z,97819.94
2023-03-11T16:30:18.493Z,97815.25
2023-03-11T16:32:45.202Z,97819.66
2023-03-11T16:35:12.142Z,97817.81
2023-03-11T16:37:39.737Z,97825.78
2023-03-11T16:40:07.250Z,97828.09
2023-03-11T16:42:33.924Z,97828.91
2023-03-11T16:45:02.777Z,97828.47
2023-03-11T16:47:30.514Z,97832.09
2023-03-11T16:49:57.126Z,97835.81
2023-03-11T16:52:23.898Z,97830.75
2023-03-11T16:54:50.683Z,97841.81
2023-03-11T16:57:17.376Z,97843.63
2023-03-11T16:59:44.214Z,97842.81
2023-03-11T17:02:12.174Z,97851.22
2023-03-11T17:04:38.842Z,97850.72
2023-03-11T17:07:06.980Z,97847.75
2023-03-11T17:09:35.238Z,97863.78
2023-03-11T17:12:02.624Z,97850.72
2023-03-11T17:14:29.356Z,97852.75
2023-03-11T17:16:56.027Z,97870.41
2023-03-11T17:19:23.997Z,97868.03
2023-03-11T17:21:51.468Z,97880.44
2023-03-11T17:24:18.346Z,97877.78
2023-03-11T17:26:44.990Z,97885.22
2023-03-11T17:29:11.648Z,97885.38
2023-03-11T17:31:38.380Z,97889.91
2023-03-11T17:34:05.022Z,97888.97
2023-03-11T17:36:31.786Z,97884.81
2023-03-11T17:38:58.421Z,97885.69
2023-03-11T17:41:25.126Z,97892.00
2023-03-11T17:43:51.785Z,97892.22
2023-03-11T17:46:20.382Z,97893.09
2023-03-11T17:48:49.085Z,97901.06
2023-03-11T17:51:18.982Z,97902.97
2023-03-11T17:53:46.633Z,97912.63
2023-03-11T17:56:15.995Z,97904.66
2023-03-11T17:58:42.683Z,97910.00
2023-03-11T18:01:20.336Z,97910.94
2023-03-11T18:03:47.530Z,97912.88
2023-03-11T18:06:15.487Z,97911.22
2023-03-11T18:08:42.130Z,97908.00
2023-03-11T18:11:11.406Z,97922.13
2023-03-11T18:13:39.866Z,97924.03
2023-03-11T18:16:09.524Z,97923.19
2023-03-11T18:18:37.351Z,97926.53
2023-03-11T18:21:06.188Z,97925.78
2023-03-11T18:23:33.345Z,97924.09
2023-03-11T18:26:04.580Z,97929.50
2023-03-11T18:28:31.861Z,97930.50
2023-03-11T18:31:18.284Z,97940.94
2023-03-11T18:33:53.973Z,97942.66
2023-03-11T18:36:26.990Z,97934.88
2023-03-11T18:38:55.260Z,97942.59
2023-03-11T18:41:22.177Z,97951.66
2023-03-11T18:43:53.783Z,97951.88
2023-03-11T18:46:20.590Z,97952.06
2023-03-11T18:48:47.283Z,97961.91
2023-03-11T18:51:14.115Z,97942.88
2023-03-11T18:53:42.836Z,97959.09
2023-03-11T18:56:13.760Z,97968.94
2023-03-11T18:58:40.672Z,97960.94
2023-03-11T19:01:14.119Z,97960.09
2023-03-11T19:03:48.504Z,97967.91
2023-03-11T19:06:16.516Z,97963.50
2023-03-11T19:08:43.553Z,97980.22
2023-03-11T19:11:19.917Z,97982.88
2023-03-11T19:13:48.080Z,97989.97
2023-03-11T19:16:21.544Z,97990.81
2023-03-11T19:18:48.366Z,97989.81
2023-03-11T19:21:16.240Z,97994.06
2023-03-11T19:23:44.229Z,97997.59
2023-03-11T19:26:11.030Z,97998.50
2023-03-11T19:28:37.765Z,97994.28
2023-03-11T19:31:05.399Z,97998.59
2023-03-11T19:33:32.500Z,97995.94
2023-03-11T19:36:01.778Z,97995.88
2023-03-11T19:38:29.143Z,98002.06
2023-03-11T19:41:11.091Z,98004.88
2023-03-11T19:43:37.866Z,98005.84
2023-03-11T19:46:06.346Z,98009.16
2023-03-11T19:48:33.733Z,98005.59
2023-03-11T19:51:02.288Z,97998.53
2023-03-11T19:53:29.253Z,98010.84
2023-03-11T19:55:57.462Z,98011.78
2023-03-11T19:58:28.636Z,98017.03
2023-03-11T20:00:58.071Z,98020.69
2023-03-11T20:03:24.993Z,98013.75
2023-03-11T20:05:52.528Z,98018.13
2023-03-11T20:08:20.939Z,98020.72
2023-03-11T20:10:50.246Z,98025.97
2023-03-11T20:13:20.114Z,98023.38
2023-03-11T20:15:46.971Z,98031.22
2023-03-11T20:18:13.698Z,98033.88
2023-03-11T20:20:43.008Z,98026.06
2023-03-11T20:23:10.173Z,98033.03
2023-03-11T20:25:41.458Z,98024.28
2023-03-11T20:28:08.714Z,98025.16
2023-03-11T20:30:37.585Z,98027.69
2023-03-11T20:33:04.441Z,98015.41
2023-03-11T20:35:31.202Z,98017.13
2023-03-11T20:37:59.310Z,98014.47
2023-03-11T20:40:26.158Z,98014.44
2023-03-11T20:42:52.957Z,98017.00
2023-03-11T20:45:22.527Z,98026.63
2023-03-11T20:47:50.425Z,98014.38
2023-03-11T20:50:17.577Z,98010.06
2023-03-11T20:52:44.718Z,98011.81
2023-03-11T20:55:12.557Z,98009.25
2023-03-11T20:57:39.820Z,98020.72
2023-03-11T21:00:11.274Z,98025.22
2023-03-11T21:02:42.856Z,98014.75
2023-03-11T21:05:11.379Z,98020.03
2023-03-11T21:07:38.541Z,98019.19
2023-03-11T21:10:12.660Z,98019.13
2023-03-11T21:12:39.465Z,98021.75
2023-03-11T21:15:08.297Z,98021.78
2023-03-11T21:17:35.913Z,98023.56
2023-03-11T21:20:05.194Z,98023.59
2023-03-11T21:22:32.813Z,98024.38
2023-03-11T21:24:59.464Z,98033.00
2023-03-11T21:27:26.665Z,98032.97
2023-03-11T21:29:58.030Z,98037.31
2023-03-11T21:32:26.743Z,98031.22
2023-03-11T21:34:58.669Z,98039.91
2023-03-11T21:37:26.187Z,98037.31
2023-03-11T21:39:53.109Z,98030.38
2023-03-11T21:42:20.206Z,98038.25
2023-03-11T21:44:47.156Z,98040.03
2023-03-11T21:47:13.981Z,98034.81
2023-03-11T21:49:40.813Z,98031.34
2023-03-11T21:52:07.568Z,98025.19
2023-03-11T21:54:34.281Z,98028.72
2023-03-11T21:57:01.186Z,98033.94
2023-03-11T21:59:27.982Z,98024.38
2023-03-11T22:01:54.776Z,98026.97
2023-03-11T22:04:21.728Z,98031.34
2023-03-11T22:06:48.539Z,98027.91
2023-03-11T22:09:15.301Z,98034.94
2023-03-11T22:11:42.131Z,98034.06
2023-03-11T22:14:08.871Z,98041.06
2023-03-11T22:16:35.726Z,98036.72
2023-03-11T22:19:04.308Z,98040.19
2023-03-11T22:21:31.021Z,98046.31
2023-03-11T22:23:57.729Z,98038.47
2023-03-11T22:26:24.369Z,98035.00
2023-03-11T22:28:50.965Z,98038.50
2023-03-11T22:31:18.890Z,98030.66
2023-03-11T22:33:47.401Z,98036.75
2023-03-11T22:36:14.381Z,98039.34
2023-03-11T22:38:44.107Z,98043.75
2023-03-11T22:41:13.270Z,98042.00
2023-03-11T22:43:40.088Z,98049.00
2023-03-11T22:46:07.003Z,98045.50
2023-03-11T22:48:34.591Z,98040.28
2023-03-11T22:51:01.943Z,98048.09
2023-03-11T22:53:29.118Z,98036.78
2023-03-11T22:55:55.914Z,98036.75
2023-03-11T22:58:22.566Z,98030.63
2023-03-11T23:00:49.260Z,98034.09
2023-03-11T23:03:16.018Z,98027.97
2023-03-11T23:05:43.203Z,98032.31
2023-03-11T23:08:11.970Z,98021.00
2023-03-11T23:10:44.447Z,98006.19
2023-03-11T23:13:11.550Z,98009.69
2023-03-11T23:15:41.860Z,98014.97
2023-03-11T23:18:08.870Z,98032.38
2023-03-11T23:20:37.229Z,98038.50
2023-03-11T23:23:04.568Z,98029.78
2023-03-11T23:25:32.185Z,98028.94
2023-03-11T23:28:01.471Z,98028.06
2023-03-11T23:30:28.966Z,98033.31
2023-03-11T23:32:57.036Z,98040.28
2023-03-11T23:35:24.279Z,98037.63
2023-03-11T23:37:51.099Z,98038.50
2023-03-11T23:40:18.573Z,98037.63
2023-03-11T23:42:45.252Z,98046.38
2023-03-11T23:45:11.995Z,98043.75
2023-03-11T23:47:38.766Z,98037.66
2023-03-11T23:50:06.048Z,98036.84
2023-03-11T23:52:33.484Z,98042.94
2023-03-11T23:55:00.421Z,98045.56
2023-03-11T23:57:27.305Z,98034.19
2023-03-11T23:59:53.970Z,98037.69
